createdAt,value
2022-08-11T00:04:55.834Z,18.3
2022-08-11T00:10:01.966Z,18.3
2022-08-11T00:15:07.039Z,18.3
2022-08-11T00:20:13.131Z,17.9
2022-08-11T00:25:19.240Z,18.3
2022-08-11T00:30:25.334Z,18.3
2022-08-11T00:35:31.407Z,17.9
2022-08-11T00:40:37.510Z,17.9
2022-08-11T00:45:43.607Z,17.6
2022-08-11T00:50:48.720Z,17.6
2022-08-11T00:55:53.835Z,17.6
2022-08-11T01:00:59.927Z,17.6
2022-08-11T01:06:05.043Z,17.9
2022-08-11T01:11:10.141Z,18.3
2022-08-11T01:16:16.240Z,17.6
2022-08-11T01:21:22.327Z,17.9
2022-08-11T01:26:28.435Z,17.6
2022-08-11T01:31:34.532Z,17.3
2022-08-11T01:36:40.622Z,17.9
2022-08-11T01:41:46.712Z,18.3
2022-08-11T01:46:52.806Z,17.3
2022-08-11T01:51:58.896Z,17.3
2022-08-11T01:57:05.010Z,17.3
2022-08-11T02:02:11.083Z,17.3
2022-08-11T02:07:17.193Z,17.3
2022-08-11T02:12:23.287Z,17.3
2022-08-11T02:17:28.393Z,17
2022-08-11T02:22:34.488Z,17.3
2022-08-11T02:27:40.588Z,17
2022-08-11T02:32:46.724Z,16.7
2022-08-11T02:37:52.771Z,17
2022-08-11T02:42:58.872Z,17
2022-08-11T02:48:04.971Z,17.6
2022-08-11T02:53:10.087Z,17
2022-08-11T02:58:15.211Z,17
2022-08-11T03:03:21.288Z,17.3
2022-08-11T03:08:27.396Z,16.7
2022-08-11T03:13:33.474Z,16.7
2022-08-11T03:18:39.588Z,16.7
2022-08-11T03:23:45.672Z,16.3
2022-08-11T03:28:51.749Z,16.3
2022-08-11T03:33:57.872Z,16.3
2022-08-11T03:39:03.941Z,16.3
2022-08-11T03:44:10.068Z,16.7
2022-08-11T03:49:16.134Z,16.3
2022-08-11T03:54:22.247Z,16.3
2022-08-11T03:59:28.342Z,16.3
2022-08-11T04:04:33.453Z,16
2022-08-11T04:09:39.543Z,16.3
2022-08-11T04:14:45.623Z,16.3
2022-08-11T04:19:51.722Z,16
2022-08-11T04:24:57.818Z,16.3
2022-08-11T04:30:03.913Z,16.3
2022-08-11T04:35:10.019Z,16
2022-08-11T04:40:15.138Z,17
2022-08-11T04:45:20.239Z,16.3
2022-08-11T04:50:25.362Z,16.3
2022-08-11T04:55:30.463Z,16.3
2022-08-11T05:00:36.564Z,16.3
2022-08-11T05:05:42.662Z,16
2022-08-11T05:10:48.750Z,17
2022-08-11T05:15:54.844Z,16.7
2022-08-11T05:21:00.952Z,16.3
2022-08-11T05:26:07.044Z,16.3
2022-08-11T05:31:13.134Z,16.7
2022-08-11T05:36:19.222Z,17
2022-08-11T05:41:25.325Z,16.7
2022-08-11T05:46:31.420Z,16.7
2022-08-11T05:51:37.500Z,16.7
2022-08-11T05:56:43.617Z,17
2022-08-11T06:01:48.715Z,17
2022-08-11T06:06:54.822Z,17.3
2022-08-11T06:12:00.911Z,16.7
2022-08-11T06:17:06.999Z,17
2022-08-11T06:22:13.085Z,17
2022-08-11T06:27:19.190Z,17
2022-08-11T06:32:25.269Z,16.7
2022-08-11T06:37:30.422Z,17.3
2022-08-11T06:42:35.517Z,17.3
2022-08-11T06:47:40.628Z,16.7
2022-08-11T06:52:45.760Z,17.3
2022-08-11T06:57:51.843Z,17.3
2022-08-11T07:02:57.929Z,17.6
2022-08-11T07:08:04.052Z,17.6
2022-08-11T07:13:10.119Z,17.6
2022-08-11T07:18:16.249Z,17.9
2022-08-11T07:23:22.298Z,17.6
2022-08-11T07:28:28.397Z,18.3
2022-08-11T07:33:34.502Z,18.3
2022-08-11T07:38:40.578Z,17.9
2022-08-11T07:43:46.699Z,18.6
2022-08-11T07:48:52.777Z,17.9
2022-08-11T07:53:58.880Z,17.9
2022-08-11T07:59:03.975Z,17.9
2022-08-11T08:04:10.079Z,18.6
2022-08-11T08:09:16.171Z,18.6
2022-08-11T08:14:22.255Z,18.9
2022-08-11T08:19:28.377Z,18.9
2022-08-11T08:24:34.466Z,18.6
2022-08-11T08:29:40.571Z,18.6
2022-08-11T08:34:45.666Z,19.2
2022-08-11T08:39:50.807Z,19.2
2022-08-11T08:44:56.862Z,19.6
2022-08-11T08:50:03.077Z,19.6
2022-08-11T08:55:09.053Z,19.2
2022-08-11T09:00:15.152Z,19.9
2022-08-11T09:05:21.247Z,19.9
2022-08-11T09:10:27.347Z,20.2
2022-08-11T09:15:33.435Z,20.5
2022-08-11T09:20:39.526Z,22.1
2022-08-11T09:25:45.620Z,21.5
2022-08-11T09:30:51.726Z,21.5
2022-08-11T09:35:57.801Z,21.8
2022-08-11T09:41:03.915Z,22.5
2022-08-11T09:46:09.012Z,22.1
2022-08-11T09:51:15.145Z,22.8
2022-08-11T09:56:21.210Z,22.8
2022-08-11T10:01:27.335Z,22.8
2022-08-11T10:06:33.407Z,22.8
2022-08-11T10:11:39.508Z,23.1
2022-08-11T10:16:45.608Z,23.1
2022-08-11T10:21:50.731Z,23.4
2022-08-11T10:26:55.834Z,23.7
2022-08-11T10:32:00.953Z,23.7
2022-08-11T10:37:06.058Z,23.7
2022-08-11T10:42:12.174Z,24.4
2022-08-11T10:47:18.262Z,24.1
2022-08-11T10:52:24.355Z,24.4
2022-08-11T10:57:30.469Z,24.7
2022-08-11T11:02:36.540Z,25
2022-08-11T11:07:42.649Z,25.7
2022-08-11T11:12:48.750Z,25.7
2022-08-11T11:17:54.858Z,25.4
2022-08-11T11:23:00.954Z,26.3
2022-08-11T11:28:07.056Z,27.3
2022-08-11T11:33:13.147Z,27.6
2022-08-11T11:38:19.219Z,27.3
2022-08-11T11:43:24.353Z,27.9
2022-08-11T11:48:30.437Z,28.9
2022-08-11T11:53:36.541Z,28.6
2022-08-11T11:58:42.639Z,29.2
2022-08-11T12:03:48.738Z,29.5
2022-08-11T12:08:54.850Z,30.2
2022-08-11T12:14:00.943Z,29.9
2022-08-11T12:19:07.024Z,29.5
2022-08-11T12:24:12.163Z,28.6
2022-08-11T12:29:17.274Z,27.9
2022-08-11T12:34:23.370Z,27.6
2022-08-11T12:39:29.453Z,27.9
2022-08-11T12:44:35.564Z,27
2022-08-11T12:49:41.664Z,26.3
2022-08-11T12:54:47.759Z,26.6
2022-08-11T12:59:53.858Z,26.6
2022-08-11T13:04:59.926Z,26
2022-08-11T13:10:06.035Z,26
2022-08-11T13:15:12.129Z,26
2022-08-11T13:20:18.223Z,25.4
2022-08-11T13:25:24.321Z,25.7
2022-08-11T13:30:30.419Z,25
2022-08-11T13:35:35.539Z,25.4
2022-08-11T13:40:41.624Z,25
2022-08-11T13:45:47.719Z,25
2022-08-11T13:50:53.818Z,25
2022-08-11T13:55:59.916Z,25.4
2022-08-11T14:01:06.006Z,25.4
2022-08-11T14:06:12.103Z,25.4
2022-08-11T14:11:17.215Z,25.7
2022-08-11T14:16:22.309Z,26.3
2022-08-11T14:21:28.416Z,26
2022-08-11T14:26:34.504Z,26
2022-08-11T14:31:40.605Z,25.7
2022-08-11T14:36:46.704Z,26
2022-08-11T14:41:57.131Z,25.4
2022-08-11T14:46:58.899Z,25
2022-08-11T14:52:04.986Z,25.4
2022-08-11T14:57:11.073Z,25
2022-08-11T15:02:17.193Z,25
2022-08-11T15:07:23.265Z,24.7
2022-08-11T15:12:29.360Z,25
2022-08-11T15:17:35.466Z,25
2022-08-11T15:22:40.576Z,24.4
2022-08-11T15:27:46.686Z,24.4
2022-08-11T15:32:52.759Z,24.4
2022-08-11T15:37:58.847Z,24.4
2022-08-11T15:43:04.946Z,24.4
2022-08-11T15:48:11.046Z,24.4
2022-08-11T15:53:17.135Z,24.7
2022-08-11T15:58:22.242Z,24.4
2022-08-11T16:03:27.357Z,24.4
2022-08-11T16:08:33.455Z,24.4
2022-08-11T16:13:39.565Z,25
2022-08-11T16:18:45.656Z,24.7
2022-08-11T16:23:51.759Z,24.4
2022-08-11T16:28:57.851Z,24.4
2022-08-11T16:34:03.947Z,24.4
2022-08-11T16:39:10.031Z,24.7
2022-08-11T16:44:16.138Z,25
2022-08-11T16:49:22.234Z,24.7
2022-08-11T16:54:28.333Z,25.4
2022-08-11T16:59:34.436Z,25.4
2022-08-11T17:04:40.504Z,25.4
2022-08-11T17:09:45.614Z,25.4
2022-08-11T17:14:51.719Z,25
2022-08-11T17:19:57.805Z,25.4
2022-08-11T17:25:03.905Z,24.7
2022-08-11T17:30:09.999Z,25
2022-08-11T17:35:16.087Z,24.1
2022-08-11T17:40:22.181Z,24.7
2022-08-11T17:45:28.296Z,24.4
2022-08-11T17:50:34.388Z,24.1
2022-08-11T17:55:40.491Z,24.1
2022-08-11T18:00:46.576Z,23.7
2022-08-11T18:05:52.675Z,23.7
2022-08-11T18:10:58.761Z,23.7
2022-08-11T18:16:03.878Z,24.1
2022-08-11T18:21:09.960Z,24.1
2022-08-11T18:26:16.061Z,23.4
2022-08-11T18:31:22.167Z,23.4
2022-08-11T18:36:28.252Z,23.4
2022-08-11T18:41:34.336Z,23.1
2022-08-11T18:46:40.441Z,22.5
2022-08-11T18:51:46.526Z,22.8
2022-08-11T18:56:52.625Z,23.4
2022-08-11T19:01:58.719Z,22.5
2022-08-11T19:07:04.834Z,22.5
2022-08-11T19:12:10.913Z,22.5
2022-08-11T19:17:16.994Z,22.1
2022-08-11T19:22:22.123Z,22.1
2022-08-11T19:27:28.210Z,22.5
2022-08-11T19:32:34.307Z,22.1
2022-08-11T19:37:40.394Z,21.8
2022-08-11T19:42:46.507Z,21.8
2022-08-11T19:47:52.583Z,21.8
2022-08-11T19:52:58.687Z,22.1
2022-08-11T19:58:04.774Z,21.8
2022-08-11T20:03:10.869Z,21.5
2022-08-11T20:08:16.955Z,22.5
2022-08-11T20:13:23.059Z,21.8
2022-08-11T20:18:29.154Z,21.5
2022-08-11T20:23:35.265Z,21.2
2022-08-11T20:28:40.343Z,21.2
2022-08-11T20:33:46.438Z,20.8
2022-08-11T20:38:52.549Z,20.8
2022-08-11T20:43:58.636Z,20.8
2022-08-11T20:49:04.763Z,21.2
2022-08-11T20:54:10.832Z,20.8
2022-08-11T20:59:16.961Z,20.8
2022-08-11T21:04:23.018Z,20.8
2022-08-11T21:09:29.117Z,20.5
2022-08-11T21:14:35.252Z,20.8
2022-08-11T21:19:54.452Z,20.5
2022-08-11T21:29:53.479Z,20.8
2022-08-11T21:34:58.586Z,20.2
2022-08-11T21:40:04.691Z,20.5
2022-08-11T21:45:10.771Z,20.2
2022-08-11T21:50:16.872Z,20.2
2022-08-11T21:55:22.965Z,20.2
2022-08-11T22:00:29.080Z,20.5
2022-08-11T22:05:35.166Z,19.9
2022-08-11T22:10:41.254Z,19.6
2022-08-11T22:15:47.362Z,19.9
2022-08-11T22:20:53.442Z,19.6
2022-08-11T22:25:59.572Z,19.6
2022-08-11T22:31:05.634Z,20.2
2022-08-11T22:36:11.729Z,19.2
2022-08-11T22:41:16.846Z,19.2
2022-08-11T22:46:22.975Z,19.6
2022-08-11T22:51:29.037Z,19.9
2022-08-11T22:56:35.127Z,19.6
2022-08-11T23:01:41.206Z,19.2
2022-08-11T23:06:47.331Z,19.2
2022-08-11T23:11:53.413Z,18.9
2022-08-11T23:16:59.497Z,18.9
2022-08-11T23:22:05.585Z,19.6
2022-08-11T23:27:11.683Z,18.6
2022-08-11T23:32:17.782Z,18.9
2022-08-11T23:37:23.890Z,18.6
2022-08-11T23:42:28.992Z,18.6
2022-08-11T23:47:35.077Z,18.6
2022-08-11T23:52:41.182Z,18.6
2022-08-11T23:57:47.268Z,18.6
